sensor_id;sensor_type;location;lat;lon;timestamp;P1;durP1;ratioP1;P2;durP2;ratioP2
9124;SDS011;4597;48.730;9.114;2023-12-28T00:01:27;5.40;;;4.90;;
9124;SDS011;4597;48.730;9.114;2023-12-28T00:03:53;5.60;;;4.50;;
9124;SDS011;4597;48.730;9.114;2023-12-28T00:06:18;5.57;;;4.40;;
9124;SDS011;4597;48.730;9.114;2023-12-28T00:08:44;5.47;;;4.13;;
9124;SDS011;4597;48.730;9.114;2023-12-28T00:11:09;5.33;;;4.00;;
9124;SDS011;4597;48.730;9.114;2023-12-28T00:13:35;5.37;;;4.10;;
9124;SDS011;4597;48.730;9.114;2023-12-28T00:16:00;5.03;;;4.53;;
9124;SDS011;4597;48.730;9.114;2023-12-28T00:18:26;6.80;;;4.70;;
9124;SDS011;4597;48.730;9.114;2023-12-28T00:20:52;5.00;;;4.10;;
9124;SDS011;4597;48.730;9.114;2023-12-28T00:23:17;4.63;;;4.23;;
9124;SDS011;4597;48.730;9.114;2023-12-28T00:25:45;7.67;;;4.60;;
9124;SDS011;4597;48.730;9.114;2023-12-28T00:28:10;4.70;;;4.30;;
9124;SDS011;4597;48.730;9.114;2023-12-28T00:30:36;5.73;;;3.97;;
9124;SDS011;4597;48.730;9.114;2023-12-28T00:33:01;6.37;;;4.30;;
9124;SDS011;4597;48.730;9.114;2023-12-28T00:35:27;7.87;;;3.70;;
9124;SDS011;4597;48.730;9.114;2023-12-28T00:37:53;3.50;;;3.20;;
9124;SDS011;4597;48.730;9.114;2023-12-28T00:40:18;4.73;;;3.93;;
9124;SDS011;4597;48.730;9.114;2023-12-28T00:42:44;3.57;;;3.27;;
9124;SDS011;4597;48.730;9.114;2023-12-28T00:45:09;4.07;;;3.17;;
9124;SDS011;4597;48.730;9.114;2023-12-28T00:47:35;3.33;;;3.03;;
9124;SDS011;4597;48.730;9.114;2023-12-28T00:50:00;3.20;;;2.90;;
9124;SDS011;4597;48.730;9.114;2023-12-28T00:52:26;3.87;;;2.27;;
9124;SDS011;4597;48.730;9.114;2023-12-28T00:54:51;2.93;;;2.20;;
9124;SDS011;4597;48.730;9.114;2023-12-28T00:57:17;4.50;;;2.80;;
9124;SDS011;4597;48.730;9.114;2023-12-28T00:59:42;4.10;;;2.50;;
9124;SDS011;4597;48.730;9.114;2023-12-28T01:02:08;2.50;;;2.37;;
9124;SDS011;4597;48.730;9.114;2023-12-28T01:04:34;2.40;;;2.27;;
9124;SDS011;4597;48.730;9.114;2023-12-28T01:07:00;2.10;;;1.87;;
9124;SDS011;4597;48.730;9.114;2023-12-28T01:09:27;1.83;;;1.73;;
9124;SDS011;4597;48.730;9.114;2023-12-28T01:11:52;1.90;;;1.80;;
9124;SDS011;4597;48.730;9.114;2023-12-28T01:14:18;2.50;;;1.63;;
9124;SDS011;4597;48.730;9.114;2023-12-28T01:16:43;2.23;;;2.03;;
9124;SDS011;4597;48.730;9.114;2023-12-28T01:19:09;1.90;;;1.80;;
9124;SDS011;4597;48.730;9.114;2023-12-28T01:21:34;2.20;;;2.00;;
9124;SDS011;4597;48.730;9.114;2023-12-28T01:24:00;2.20;;;2.00;;
9124;SDS011;4597;48.730;9.114;2023-12-28T01:26:26;2.57;;;2.00;;
9124;SDS011;4597;48.730;9.114;2023-12-28T01:28:51;2.03;;;1.93;;
9124;SDS011;4597;48.730;9.114;2023-12-28T01:31:17;1.90;;;1.80;;
9124;SDS011;4597;48.730;9.114;2023-12-28T01:33:42;2.47;;;2.27;;
9124;SDS011;4597;48.730;9.114;2023-12-28T01:36:16;2.03;;;1.93;;
9124;SDS011;4597;48.730;9.114;2023-12-28T01:38:42;2.13;;;1.93;;
9124;SDS011;4597;48.730;9.114;2023-12-28T01:41:08;2.33;;;1.90;;
9124;SDS011;4597;48.730;9.114;2023-12-28T01:43:33;4.57;;;1.77;;
9124;SDS011;4597;48.730;9.114;2023-12-28T01:45:59;2.60;;;2.40;;
9124;SDS011;4597;48.730;9.114;2023-12-28T01:48:25;2.90;;;2.70;;
9124;SDS011;4597;48.730;9.114;2023-12-28T01:50:50;5.23;;;2.93;;
9124;SDS011;4597;48.730;9.114;2023-12-28T01:53:16;3.70;;;2.93;;
9124;SDS011;4597;48.730;9.114;2023-12-28T01:55:42;4.13;;;3.07;;
9124;SDS011;4597;48.730;9.114;2023-12-28T01:58:08;3.57;;;2.77;;
9124;SDS011;4597;48.730;9.114;2023-12-28T02:00:33;3.77;;;2.90;;
9124;SDS011;4597;48.730;9.114;2023-12-28T02:03:02;2.60;;;2.20;;
9124;SDS011;4597;48.730;9.114;2023-12-28T02:05:27;3.23;;;2.23;;
9124;SDS011;4597;48.730;9.114;2023-12-28T02:07:53;3.50;;;2.17;;
9124;SDS011;4597;48.730;9.114;2023-12-28T02:10:19;2.43;;;2.10;;
9124;SDS011;4597;48.730;9.114;2023-12-28T02:12:44;4.03;;;1.93;;
9124;SDS011;4597;48.730;9.114;2023-12-28T02:15:10;1.90;;;1.80;;
9124;SDS011;4597;48.730;9.114;2023-12-28T02:17:38;2.67;;;2.40;;
9124;SDS011;4597;48.730;9.114;2023-12-28T02:20:20;2.07;;;1.93;;
9124;SDS011;4597;48.730;9.114;2023-12-28T02:22:47;1.90;;;1.80;;
9124;SDS011;4597;48.730;9.114;2023-12-28T02:25:13;3.10;;;2.03;;
9124;SDS011;4597;48.730;9.114;2023-12-28T02:27:42;2.93;;;2.67;;
9124;SDS011;4597;48.730;9.114;2023-12-28T02:30:12;2.00;;;1.90;;
9124;SDS011;4597;48.730;9.114;2023-12-28T02:35:32;3.23;;;2.33;;
9124;SDS011;4597;48.730;9.114;2023-12-28T02:38:11;2.10;;;2.00;;
9124;SDS011;4597;48.730;9.114;2023-12-28T02:40:42;2.00;;;1.90;;
9124;SDS011;4597;48.730;9.114;2023-12-28T02:43:09;2.57;;;2.37;;
9124;SDS011;4597;48.730;9.114;2023-12-28T02:45:35;3.10;;;2.20;;
9124;SDS011;4597;48.730;9.114;2023-12-28T02:48:02;2.57;;;2.07;;
9124;SDS011;4597;48.730;9.114;2023-12-28T02:50:28;2.87;;;2.33;;
9124;SDS011;4597;48.730;9.114;2023-12-28T02:52:57;2.30;;;2.10;;
9124;SDS011;4597;48.730;9.114;2023-12-28T02:55:23;3.23;;;2.53;;
9124;SDS011;4597;48.730;9.114;2023-12-28T02:57:50;2.53;;;2.00;;
9124;SDS011;4597;48.730;9.114;2023-12-28T03:00:16;3.47;;;2.30;;
9124;SDS011;4597;48.730;9.114;2023-12-28T03:02:41;2.20;;;2.10;;
9124;SDS011;4597;48.730;9.114;2023-12-28T03:05:07;3.37;;;2.60;;
9124;SDS011;4597;48.730;9.114;2023-12-28T03:07:33;2.43;;;2.13;;
9124;SDS011;4597;48.730;9.114;2023-12-28T03:09:59;2.97;;;2.77;;
9124;SDS011;4597;48.730;9.114;2023-12-28T03:12:25;2.50;;;2.33;;
9124;SDS011;4597;48.730;9.114;2023-12-28T03:14:51;2.97;;;2.13;;
9124;SDS011;4597;48.730;9.114;2023-12-28T03:17:17;2.27;;;2.07;;
9124;SDS011;4597;48.730;9.114;2023-12-28T03:19:42;4.00;;;2.63;;
9124;SDS011;4597;48.730;9.114;2023-12-28T03:22:08;2.83;;;2.00;;
9124;SDS011;4597;48.730;9.114;2023-12-28T03:24:33;2.37;;;2.23;;
9124;SDS011;4597;48.730;9.114;2023-12-28T03:26:59;3.50;;;2.53;;
9124;SDS011;4597;48.730;9.114;2023-12-28T03:29:24;3.70;;;2.10;;
9124;SDS011;4597;48.730;9.114;2023-12-28T03:31:50;1.90;;;1.80;;
9124;SDS011;4597;48.730;9.114;2023-12-28T03:34:15;2.77;;;1.80;;
9124;SDS011;4597;48.730;9.114;2023-12-28T03:36:41;1.30;;;1.20;;
9124;SDS011;4597;48.730;9.114;2023-12-28T03:39:07;1.77;;;1.67;;
9124;SDS011;4597;48.730;9.114;2023-12-28T03:41:33;1.50;;;1.27;;
9124;SDS011;4597;48.730;9.114;2023-12-28T03:43:59;1.60;;;1.50;;
9124;SDS011;4597;48.730;9.114;2023-12-28T03:46:24;1.47;;;1.37;;
9124;SDS011;4597;48.730;9.114;2023-12-28T03:48:51;0.90;;;0.90;;
9124;SDS011;4597;48.730;9.114;2023-12-28T03:51:17;2.87;;;1.93;;
9124;SDS011;4597;48.730;9.114;2023-12-28T03:53:43;2.03;;;1.83;;
9124;SDS011;4597;48.730;9.114;2023-12-28T03:56:17;2.27;;;2.07;;
9124;SDS011;4597;48.730;9.114;2023-12-28T03:58:52;2.40;;;1.97;;
9124;SDS011;4597;48.730;9.114;2023-12-28T04:01:21;2.73;;;2.50;;
9124;SDS011;4597;48.730;9.114;2023-12-28T04:03:47;2.40;;;2.20;;
9124;SDS011;4597;48.730;9.114;2023-12-28T04:06:14;2.07;;;1.90;;
9124;SDS011;4597;48.730;9.114;2023-12-28T04:08:40;2.60;;;2.03;;
9124;SDS011;4597;48.730;9.114;2023-12-28T04:11:06;2.93;;;2.40;;
9124;SDS011;4597;48.730;9.114;2023-12-28T04:13:32;2.30;;;2.10;;
9124;SDS011;4597;48.730;9.114;2023-12-28T04:15:57;2.07;;;1.93;;
9124;SDS011;4597;48.730;9.114;2023-12-28T04:18:23;2.83;;;2.03;;
9124;SDS011;4597;48.730;9.114;2023-12-28T04:20:48;1.80;;;1.70;;
9124;SDS011;4597;48.730;9.114;2023-12-28T04:23:14;2.23;;;2.13;;
9124;SDS011;4597;48.730;9.114;2023-12-28T04:25:40;1.83;;;1.73;;
9124;SDS011;4597;48.730;9.114;2023-12-28T04:28:08;1.53;;;1.43;;
9124;SDS011;4597;48.730;9.114;2023-12-28T04:30:34;1.73;;;1.60;;
9124;SDS011;4597;48.730;9.114;2023-12-28T04:33:02;1.20;;;1.20;;
9124;SDS011;4597;48.730;9.114;2023-12-28T04:35:28;1.80;;;1.70;;
9124;SDS011;4597;48.730;9.114;2023-12-28T04:37:54;2.83;;;1.50;;
9124;SDS011;4597;48.730;9.114;2023-12-28T04:40:20;1.77;;;1.67;;
9124;SDS011;4597;48.730;9.114;2023-12-28T04:42:45;1.80;;;1.70;;
9124;SDS011;4597;48.730;9.114;2023-12-28T04:45:11;2.23;;;2.07;;
9124;SDS011;4597;48.730;9.114;2023-12-28T04:47:37;1.60;;;1.50;;
9124;SDS011;4597;48.730;9.114;2023-12-28T04:50:03;1.80;;;1.70;;
9124;SDS011;4597;48.730;9.114;2023-12-28T04:52:29;1.50;;;1.40;;
9124;SDS011;4597;48.730;9.114;2023-12-28T04:54:55;1.70;;;1.60;;
9124;SDS011;4597;48.730;9.114;2023-12-28T04:57:21;1.60;;;1.50;;
9124;SDS011;4597;48.730;9.114;2023-12-28T04:59:49;2.23;;;1.70;;
9124;SDS011;4597;48.730;9.114;2023-12-28T05:02:15;2.40;;;2.00;;
9124;SDS011;4597;48.730;9.114;2023-12-28T05:04:41;1.97;;;1.87;;
9124;SDS011;4597;48.730;9.114;2023-12-28T05:07:06;2.00;;;1.87;;
9124;SDS011;4597;48.730;9.114;2023-12-28T05:09:32;1.87;;;1.77;;
9124;SDS011;4597;48.730;9.114;2023-12-28T05:11:57;2.03;;;1.93;;
9124;SDS011;4597;48.730;9.114;2023-12-28T05:14:23;4.37;;;1.83;;
9124;SDS011;4597;48.730;9.114;2023-12-28T05:16:48;1.57;;;1.50;;
9124;SDS011;4597;48.730;9.114;2023-12-28T05:19:14;1.13;;;1.10;;
9124;SDS011;4597;48.730;9.114;2023-12-28T05:21:40;1.30;;;1.20;;
9124;SDS011;4597;48.730;9.114;2023-12-28T05:24:05;2.53;;;1.37;;
9124;SDS011;4597;48.730;9.114;2023-12-28T05:26:31;1.73;;;1.40;;
9124;SDS011;4597;48.730;9.114;2023-12-28T05:28:56;2.10;;;1.37;;
9124;SDS011;4597;48.730;9.114;2023-12-28T05:31:22;1.30;;;1.20;;
9124;SDS011;4597;48.730;9.114;2023-12-28T05:33:47;1.13;;;1.00;;
9124;SDS011;4597;48.730;9.114;2023-12-28T05:36:13;1.23;;;1.10;;
9124;SDS011;4597;48.730;9.114;2023-12-28T05:38:38;1.73;;;1.10;;
9124;SDS011;4597;48.730;9.114;2023-12-28T05:41:04;1.00;;;1.00;;
9124;SDS011;4597;48.730;9.114;2023-12-28T05:43:29;0.83;;;0.83;;
9124;SDS011;4597;48.730;9.114;2023-12-28T05:45:55;1.03;;;1.03;;
9124;SDS011;4597;48.730;9.114;2023-12-28T05:48:20;0.73;;;0.73;;
9124;SDS011;4597;48.730;9.114;2023-12-28T05:50:46;1.03;;;1.03;;
9124;SDS011;4597;48.730;9.114;2023-12-28T05:53:11;0.80;;;0.80;;
9124;SDS011;4597;48.730;9.114;2023-12-28T05:55:41;1.00;;;1.00;;
9124;SDS011;4597;48.730;9.114;2023-12-28T05:58:08;1.10;;;1.00;;
9124;SDS011;4597;48.730;9.114;2023-12-28T06:00:33;0.67;;;0.67;;
9124;SDS011;4597;48.730;9.114;2023-12-28T06:03:01;0.70;;;0.70;;
9124;SDS011;4597;48.730;9.114;2023-12-28T06:05:27;0.70;;;0.70;;
9124;SDS011;4597;48.730;9.114;2023-12-28T06:07:52;1.83;;;0.83;;
9124;SDS011;4597;48.730;9.114;2023-12-28T06:10:18;0.70;;;0.70;;
9124;SDS011;4597;48.730;9.114;2023-12-28T06:12:45;0.70;;;0.70;;
9124;SDS011;4597;48.730;9.114;2023-12-28T06:15:10;0.80;;;0.80;;
9124;SDS011;4597;48.730;9.114;2023-12-28T06:17:36;0.83;;;0.83;;
9124;SDS011;4597;48.730;9.114;2023-12-28T06:20:01;0.63;;;0.63;;
9124;SDS011;4597;48.730;9.114;2023-12-28T06:22:27;0.70;;;0.70;;
9124;SDS011;4597;48.730;9.114;2023-12-28T06:24:53;1.03;;;0.80;;
9124;SDS011;4597;48.730;9.114;2023-12-28T06:27:20;0.60;;;0.60;;
9124;SDS011;4597;48.730;9.114;2023-12-28T06:29:45;0.73;;;0.73;;
9124;SDS011;4597;48.730;9.114;2023-12-28T06:32:11;0.80;;;0.80;;
9124;SDS011;4597;48.730;9.114;2023-12-28T06:34:36;0.60;;;0.60;;
9124;SDS011;4597;48.730;9.114;2023-12-28T06:37:02;0.73;;;0.73;;
9124;SDS011;4597;48.730;9.114;2023-12-28T06:39:28;1.07;;;1.03;;
9124;SDS011;4597;48.730;9.114;2023-12-28T06:41:53;1.10;;;0.97;;
9124;SDS011;4597;48.730;9.114;2023-12-28T06:44:19;1.20;;;1.13;;
9124;SDS011;4597;48.730;9.114;2023-12-28T06:46:44;0.93;;;0.80;;
9124;SDS011;4597;48.730;9.114;2023-12-28T06:49:10;0.60;;;0.60;;
9124;SDS011;4597;48.730;9.114;2023-12-28T06:51:35;1.40;;;0.80;;
9124;SDS011;4597;48.730;9.114;2023-12-28T06:54:01;0.90;;;0.90;;
9124;SDS011;4597;48.730;9.114;2023-12-28T06:56:26;1.37;;;1.30;;
9124;SDS011;4597;48.730;9.114;2023-12-28T06:58:52;1.33;;;1.10;;
9124;SDS011;4597;48.730;9.114;2023-12-28T07:01:17;0.90;;;0.90;;
9124;SDS011;4597;48.730;9.114;2023-12-28T07:03:43;1.00;;;0.90;;
9124;SDS011;4597;48.730;9.114;2023-12-28T07:06:08;0.70;;;0.70;;
9124;SDS011;4597;48.730;9.114;2023-12-28T07:08:34;1.03;;;0.93;;
9124;SDS011;4597;48.730;9.114;2023-12-28T07:11:01;0.70;;;0.70;;
9124;SDS011;4597;48.730;9.114;2023-12-28T07:13:27;2.43;;;0.90;;
9124;SDS011;4597;48.730;9.114;2023-12-28T07:15:52;0.90;;;0.90;;
9124;SDS011;4597;48.730;9.114;2023-12-28T07:18:18;1.77;;;1.20;;
9124;SDS011;4597;48.730;9.114;2023-12-28T07:20:44;0.70;;;0.70;;
9124;SDS011;4597;48.730;9.114;2023-12-28T07:23:09;0.70;;;0.70;;
9124;SDS011;4597;48.730;9.114;2023-12-28T07:25:35;0.87;;;0.80;;
9124;SDS011;4597;48.730;9.114;2023-12-28T07:28:00;1.07;;;1.07;;
9124;SDS011;4597;48.730;9.114;2023-12-28T07:30:26;1.33;;;1.20;;
9124;SDS011;4597;48.730;9.114;2023-12-28T07:32:52;1.80;;;1.10;;
9124;SDS011;4597;48.730;9.114;2023-12-28T07:35:17;0.60;;;0.60;;
9124;SDS011;4597;48.730;9.114;2023-12-28T07:37:43;0.63;;;0.63;;
9124;SDS011;4597;48.730;9.114;2023-12-28T07:40:11;1.57;;;1.00;;
9124;SDS011;4597;48.730;9.114;2023-12-28T07:42:37;2.20;;;1.27;;
9124;SDS011;4597;48.730;9.114;2023-12-28T07:45:03;0.87;;;0.87;;
9124;SDS011;4597;48.730;9.114;2023-12-28T07:47:28;1.40;;;1.30;;
9124;SDS011;4597;48.730;9.114;2023-12-28T07:49:54;1.10;;;1.10;;
9124;SDS011;4597;48.730;9.114;2023-12-28T07:52:20;1.80;;;1.70;;
9124;SDS011;4597;48.730;9.114;2023-12-28T07:54:45;1.90;;;1.67;;
9124;SDS011;4597;48.730;9.114;2023-12-28T07:57:11;1.13;;;1.13;;
9124;SDS011;4597;48.730;9.114;2023-12-28T07:59:36;1.03;;;1.03;;
9124;SDS011;4597;48.730;9.114;2023-12-28T08:02:02;0.90;;;0.90;;
9124;SDS011;4597;48.730;9.114;2023-12-28T08:04:27;1.03;;;1.03;;
9124;SDS011;4597;48.730;9.114;2023-12-28T08:06:53;1.40;;;1.00;;
9124;SDS011;4597;48.730;9.114;2023-12-28T08:09:18;0.87;;;0.87;;
9124;SDS011;4597;48.730;9.114;2023-12-28T08:11:44;0.90;;;0.90;;
9124;SDS011;4597;48.730;9.114;2023-12-28T08:14:10;1.17;;;1.10;;
9124;SDS011;4597;48.730;9.114;2023-12-28T08:16:35;1.37;;;1.27;;
9124;SDS011;4597;48.730;9.114;2023-12-28T08:19:01;1.50;;;1.30;;
9124;SDS011;4597;48.730;9.114;2023-12-28T08:21:27;1.00;;;1.00;;
9124;SDS011;4597;48.730;9.114;2023-12-28T08:23:52;1.50;;;1.10;;
9124;SDS011;4597;48.730;9.114;2023-12-28T08:26:18;0.90;;;0.90;;
9124;SDS011;4597;48.730;9.114;2023-12-28T08:28:43;1.10;;;1.10;;
9124;SDS011;4597;48.730;9.114;2023-12-28T08:31:09;1.00;;;1.00;;
9124;SDS011;4597;48.730;9.114;2023-12-28T08:33:35;1.10;;;1.10;;
9124;SDS011;4597;48.730;9.114;2023-12-28T08:36:04;1.33;;;1.23;;
9124;SDS011;4597;48.730;9.114;2023-12-28T08:38:30;1.90;;;1.57;;
9124;SDS011;4597;48.730;9.114;2023-12-28T08:40:56;1.27;;;1.17;;
9124;SDS011;4597;48.730;9.114;2023-12-28T08:43:21;2.57;;;1.30;;
9124;SDS011;4597;48.730;9.114;2023-12-28T08:45:47;1.63;;;1.53;;
9124;SDS011;4597;48.730;9.114;2023-12-28T08:48:12;1.13;;;1.10;;
9124;SDS011;4597;48.730;9.114;2023-12-28T08:50:38;1.63;;;1.30;;
9124;SDS011;4597;48.730;9.114;2023-12-28T08:53:03;1.40;;;1.30;;
9124;SDS011;4597;48.730;9.114;2023-12-28T08:55:29;1.73;;;1.40;;
9124;SDS011;4597;48.730;9.114;2023-12-28T08:57:54;2.63;;;2.07;;
9124;SDS011;4597;48.730;9.114;2023-12-28T09:00:20;1.57;;;1.47;;
9124;SDS011;4597;48.730;9.114;2023-12-28T09:02:45;1.43;;;1.33;;
9124;SDS011;4597;48.730;9.114;2023-12-28T09:05:11;1.17;;;1.17;;
9124;SDS011;4597;48.730;9.114;2023-12-28T09:07:36;1.73;;;1.10;;
9124;SDS011;4597;48.730;9.114;2023-12-28T09:10:07;1.30;;;1.20;;
9124;SDS011;4597;48.730;9.114;2023-12-28T09:12:37;1.10;;;1.10;;
9124;SDS011;4597;48.730;9.114;2023-12-28T09:15:05;2.13;;;1.30;;
9124;SDS011;4597;48.730;9.114;2023-12-28T09:17:32;1.30;;;1.20;;
9124;SDS011;4597;48.730;9.114;2023-12-28T09:19:57;1.47;;;1.30;;
9124;SDS011;4597;48.730;9.114;2023-12-28T09:22:23;1.43;;;1.33;;
9124;SDS011;4597;48.730;9.114;2023-12-28T09:24:49;1.83;;;1.73;;
9124;SDS011;4597;48.730;9.114;2023-12-28T09:27:14;1.50;;;1.40;;
9124;SDS011;4597;48.730;9.114;2023-12-28T09:29:40;3.80;;;1.50;;
9124;SDS011;4597;48.730;9.114;2023-12-28T09:32:06;1.60;;;1.50;;
9124;SDS011;4597;48.730;9.114;2023-12-28T09:34:32;1.47;;;1.37;;
9124;SDS011;4597;48.730;9.114;2023-12-28T09:36:58;1.80;;;1.70;;
9124;SDS011;4597;48.730;9.114;2023-12-28T09:39:24;1.37;;;1.37;;
9124;SDS011;4597;48.730;9.114;2023-12-28T09:41:53;2.30;;;1.50;;
9124;SDS011;4597;48.730;9.114;2023-12-28T09:44:24;1.90;;;1.80;;
9124;SDS011;4597;48.730;9.114;2023-12-28T09:46:50;1.50;;;1.40;;
9124;SDS011;4597;48.730;9.114;2023-12-28T09:49:18;1.70;;;1.60;;
9124;SDS011;4597;48.730;9.114;2023-12-28T09:51:46;1.80;;;1.70;;
9124;SDS011;4597;48.730;9.114;2023-12-28T09:54:12;1.83;;;1.67;;
9124;SDS011;4597;48.730;9.114;2023-12-28T09:56:38;2.17;;;1.63;;
9124;SDS011;4597;48.730;9.114;2023-12-28T09:59:04;1.47;;;1.37;;
9124;SDS011;4597;48.730;9.114;2023-12-28T10:01:31;1.60;;;1.50;;
9124;SDS011;4597;48.730;9.114;2023-12-28T10:04:01;1.20;;;1.20;;
9124;SDS011;4597;48.730;9.114;2023-12-28T10:06:28;1.70;;;1.60;;
9124;SDS011;4597;48.730;9.114;2023-12-28T10:08:54;2.03;;;1.60;;
9124;SDS011;4597;48.730;9.114;2023-12-28T10:11:20;1.60;;;1.50;;
9124;SDS011;4597;48.730;9.114;2023-12-28T10:13:48;1.60;;;1.50;;
9124;SDS011;4597;48.730;9.114;2023-12-28T10:16:14;1.63;;;1.53;;
9124;SDS011;4597;48.730;9.114;2023-12-28T10:18:43;1.57;;;1.47;;
9124;SDS011;4597;48.730;9.114;2023-12-28T10:21:10;1.40;;;1.30;;
9124;SDS011;4597;48.730;9.114;2023-12-28T10:23:36;1.63;;;1.53;;
9124;SDS011;4597;48.730;9.114;2023-12-28T10:26:03;1.70;;;1.60;;
9124;SDS011;4597;48.730;9.114;2023-12-28T10:28:31;1.73;;;1.63;;
9124;SDS011;4597;48.730;9.114;2023-12-28T10:30:58;1.83;;;1.73;;
9124;SDS011;4597;48.730;9.114;2023-12-28T10:33:24;1.80;;;1.70;;
9124;SDS011;4597;48.730;9.114;2023-12-28T10:35:50;1.47;;;1.47;;
9124;SDS011;4597;48.730;9.114;2023-12-28T10:38:17;1.40;;;1.30;;
9124;SDS011;4597;48.730;9.114;2023-12-28T10:40:44;1.60;;;1.50;;
9124;SDS011;4597;48.730;9.114;2023-12-28T10:43:11;1.30;;;1.20;;
9124;SDS011;4597;48.730;9.114;2023-12-28T10:45:39;1.23;;;1.10;;
9124;SDS011;4597;48.730;9.114;2023-12-28T10:48:09;1.10;;;1.10;;
9124;SDS011;4597;48.730;9.114;2023-12-28T10:50:40;2.13;;;1.50;;
9124;SDS011;4597;48.730;9.114;2023-12-28T10:53:11;1.90;;;1.80;;
9124;SDS011;4597;48.730;9.114;2023-12-28T10:55:40;1.10;;;1.10;;
9124;SDS011;4597;48.730;9.114;2023-12-28T10:58:34;1.70;;;1.27;;
9124;SDS011;4597;48.730;9.114;2023-12-28T11:01:09;1.40;;;1.40;;
9124;SDS011;4597;48.730;9.114;2023-12-28T11:03:40;1.40;;;1.40;;
9124;SDS011;4597;48.730;9.114;2023-12-28T11:06:08;1.50;;;1.50;;
9124;SDS011;4597;48.730;9.114;2023-12-28T11:08:35;1.10;;;1.10;;
9124;SDS011;4597;48.730;9.114;2023-12-28T11:11:01;1.10;;;1.10;;
9124;SDS011;4597;48.730;9.114;2023-12-28T11:13:30;1.13;;;1.00;;
9124;SDS011;4597;48.730;9.114;2023-12-28T11:15:58;0.90;;;0.90;;
9124;SDS011;4597;48.730;9.114;2023-12-28T11:18:24;1.00;;;1.00;;
9124;SDS011;4597;48.730;9.114;2023-12-28T11:20:51;0.87;;;0.83;;
9124;SDS011;4597;48.730;9.114;2023-12-28T11:23:17;0.80;;;0.80;;
9124;SDS011;4597;48.730;9.114;2023-12-28T11:25:43;0.80;;;0.80;;
9124;SDS011;4597;48.730;9.114;2023-12-28T11:28:09;0.90;;;0.90;;
9124;SDS011;4597;48.730;9.114;2023-12-28T11:30:35;1.00;;;1.00;;
9124;SDS011;4597;48.730;9.114;2023-12-28T11:33:02;1.97;;;1.50;;
9124;SDS011;4597;48.730;9.114;2023-12-28T11:35:38;1.43;;;1.33;;
9124;SDS011;4597;48.730;9.114;2023-12-28T11:38:06;1.23;;;1.23;;
9124;SDS011;4597;48.730;9.114;2023-12-28T11:40:40;1.90;;;1.23;;
9124;SDS011;4597;48.730;9.114;2023-12-28T11:43:20;1.50;;;1.40;;
9124;SDS011;4597;48.730;9.114;2023-12-28T11:45:47;1.63;;;1.50;;
9124;SDS011;4597;48.730;9.114;2023-12-28T11:48:25;1.40;;;1.30;;
9124;SDS011;4597;48.730;9.114;2023-12-28T11:50:53;1.47;;;1.37;;
9124;SDS011;4597;48.730;9.114;2023-12-28T11:53:21;1.40;;;1.40;;
9124;SDS011;4597;48.730;9.114;2023-12-28T11:55:47;1.53;;;1.43;;
9124;SDS011;4597;48.730;9.114;2023-12-28T11:58:12;1.70;;;1.60;;
9124;SDS011;4597;48.730;9.114;2023-12-28T12:00:39;2.00;;;1.80;;
9124;SDS011;4597;48.730;9.114;2023-12-28T12:03:04;1.43;;;1.33;;
9124;SDS011;4597;48.730;9.114;2023-12-28T12:05:31;1.77;;;1.67;;
9124;SDS011;4597;48.730;9.114;2023-12-28T12:07:56;1.50;;;1.40;;
9124;SDS011;4597;48.730;9.114;2023-12-28T12:10:22;1.30;;;1.30;;
9124;SDS011;4597;48.730;9.114;2023-12-28T12:12:47;1.23;;;1.23;;
9124;SDS011;4597;48.730;9.114;2023-12-28T12:15:17;1.87;;;1.37;;
9124;SDS011;4597;48.730;9.114;2023-12-28T12:17:43;1.47;;;1.37;;
9124;SDS011;4597;48.730;9.114;2023-12-28T12:20:09;1.30;;;1.20;;
9124;SDS011;4597;48.730;9.114;2023-12-28T12:22:35;1.87;;;1.37;;
9124;SDS011;4597;48.730;9.114;2023-12-28T12:25:01;1.20;;;1.20;;
9124;SDS011;4597;48.730;9.114;2023-12-28T12:27:30;1.33;;;1.23;;
9124;SDS011;4597;48.730;9.114;2023-12-28T12:29:55;1.17;;;1.17;;
9124;SDS011;4597;48.730;9.114;2023-12-28T12:32:21;1.00;;;1.00;;
9124;SDS011;4597;48.730;9.114;2023-12-28T12:34:47;0.90;;;0.90;;
9124;SDS011;4597;48.730;9.114;2023-12-28T12:37:13;1.10;;;1.10;;
9124;SDS011;4597;48.730;9.114;2023-12-28T12:39:39;1.30;;;1.20;;
9124;SDS011;4597;48.730;9.114;2023-12-28T12:42:05;1.03;;;1.00;;
9124;SDS011;4597;48.730;9.114;2023-12-28T12:44:30;0.90;;;0.90;;
9124;SDS011;4597;48.730;9.114;2023-12-28T12:46:57;1.17;;;1.17;;
9124;SDS011;4597;48.730;9.114;2023-12-28T12:49:23;0.90;;;0.80;;
9124;SDS011;4597;48.730;9.114;2023-12-28T12:51:50;0.90;;;0.90;;
9124;SDS011;4597;48.730;9.114;2023-12-28T12:54:16;1.20;;;1.07;;
9124;SDS011;4597;48.730;9.114;2023-12-28T12:56:43;1.00;;;1.00;;
9124;SDS011;4597;48.730;9.114;2023-12-28T12:59:10;1.50;;;1.40;;
9124;SDS011;4597;48.730;9.114;2023-12-28T13:01:41;1.20;;;1.13;;
9124;SDS011;4597;48.730;9.114;2023-12-28T13:04:07;1.10;;;1.10;;
9124;SDS011;4597;48.730;9.114;2023-12-28T13:06:32;1.40;;;1.30;;
9124;SDS011;4597;48.730;9.114;2023-12-28T13:08:58;1.67;;;1.57;;
9124;SDS011;4597;48.730;9.114;2023-12-28T13:11:24;1.00;;;1.00;;
9124;SDS011;4597;48.730;9.114;2023-12-28T13:13:51;1.17;;;1.13;;
9124;SDS011;4597;48.730;9.114;2023-12-28T13:16:17;1.30;;;1.20;;
9124;SDS011;4597;48.730;9.114;2023-12-28T13:18:43;1.30;;;1.30;;
9124;SDS011;4597;48.730;9.114;2023-12-28T13:21:08;1.07;;;1.07;;
9124;SDS011;4597;48.730;9.114;2023-12-28T13:23:34;1.43;;;1.33;;
9124;SDS011;4597;48.730;9.114;2023-12-28T13:25:59;1.70;;;1.60;;
9124;SDS011;4597;48.730;9.114;2023-12-28T13:28:25;1.20;;;1.20;;
9124;SDS011;4597;48.730;9.114;2023-12-28T13:30:51;1.93;;;1.40;;
9124;SDS011;4597;48.730;9.114;2023-12-28T13:33:20;1.40;;;1.30;;
9124;SDS011;4597;48.730;9.114;2023-12-28T13:35:46;1.27;;;1.20;;
9124;SDS011;4597;48.730;9.114;2023-12-28T13:38:11;1.23;;;1.23;;
9124;SDS011;4597;48.730;9.114;2023-12-28T13:40:37;1.23;;;1.20;;
9124;SDS011;4597;48.730;9.114;2023-12-28T13:43:02;1.10;;;1.10;;
9124;SDS011;4597;48.730;9.114;2023-12-28T13:45:28;1.60;;;1.10;;
9124;SDS011;4597;48.730;9.114;2023-12-28T13:47:53;1.23;;;1.23;;
9124;SDS011;4597;48.730;9.114;2023-12-28T13:50:19;1.30;;;1.30;;
9124;SDS011;4597;48.730;9.114;2023-12-28T13:52:45;1.10;;;1.10;;
9124;SDS011;4597;48.730;9.114;2023-12-28T13:55:11;1.03;;;1.03;;
9124;SDS011;4597;48.730;9.114;2023-12-28T13:57:36;0.93;;;0.93;;
9124;SDS011;4597;48.730;9.114;2023-12-28T14:00:02;1.20;;;1.20;;
9124;SDS011;4597;48.730;9.114;2023-12-28T14:02:30;1.10;;;1.10;;
9124;SDS011;4597;48.730;9.114;2023-12-28T14:04:55;1.33;;;1.23;;
9124;SDS011;4597;48.730;9.114;2023-12-28T14:07:22;1.00;;;1.00;;
9124;SDS011;4597;48.730;9.114;2023-12-28T14:09:47;0.70;;;0.70;;
9124;SDS011;4597;48.730;9.114;2023-12-28T14:12:13;1.50;;;1.40;;
9124;SDS011;4597;48.730;9.114;2023-12-28T14:14:38;1.40;;;1.30;;
9124;SDS011;4597;48.730;9.114;2023-12-28T14:17:04;1.10;;;1.10;;
9124;SDS011;4597;48.730;9.114;2023-12-28T14:19:30;0.80;;;0.80;;
9124;SDS011;4597;48.730;9.114;2023-12-28T14:21:56;1.90;;;0.97;;
9124;SDS011;4597;48.730;9.114;2023-12-28T14:24:22;1.17;;;1.17;;
9124;SDS011;4597;48.730;9.114;2023-12-28T14:26:47;0.80;;;0.80;;
9124;SDS011;4597;48.730;9.114;2023-12-28T14:29:18;1.07;;;1.00;;
9124;SDS011;4597;48.730;9.114;2023-12-28T14:31:44;1.30;;;1.20;;
9124;SDS011;4597;48.730;9.114;2023-12-28T14:34:09;1.03;;;1.00;;
9124;SDS011;4597;48.730;9.114;2023-12-28T14:36:36;0.90;;;0.90;;
9124;SDS011;4597;48.730;9.114;2023-12-28T14:39:06;1.07;;;1.07;;
9124;SDS011;4597;48.730;9.114;2023-12-28T14:41:33;0.70;;;0.70;;
9124;SDS011;4597;48.730;9.114;2023-12-28T14:43:59;1.10;;;1.10;;
9124;SDS011;4597;48.730;9.114;2023-12-28T14:46:25;1.00;;;1.00;;
9124;SDS011;4597;48.730;9.114;2023-12-28T14:48:51;1.00;;;1.00;;
9124;SDS011;4597;48.730;9.114;2023-12-28T14:51:17;1.23;;;0.90;;
9124;SDS011;4597;48.730;9.114;2023-12-28T14:53:43;0.90;;;0.90;;
9124;SDS011;4597;48.730;9.114;2023-12-28T14:56:09;1.10;;;1.10;;
9124;SDS011;4597;48.730;9.114;2023-12-28T14:58:36;1.27;;;1.00;;
9124;SDS011;4597;48.730;9.114;2023-12-28T15:01:05;1.20;;;1.20;;
9124;SDS011;4597;48.730;9.114;2023-12-28T15:03:31;1.10;;;1.10;;
9124;SDS011;4597;48.730;9.114;2023-12-28T15:05:57;0.90;;;0.90;;
9124;SDS011;4597;48.730;9.114;2023-12-28T15:08:25;0.90;;;0.90;;
9124;SDS011;4597;48.730;9.114;2023-12-28T15:10:51;1.20;;;1.17;;
9124;SDS011;4597;48.730;9.114;2023-12-28T15:13:17;1.20;;;1.10;;